California Highway — 3FJL6 — position and weather

sailwx.info

Track history (hours):
 
Tides and Currents Weather Stations Pressure Air Temp Water Temp Dewpoint Dewpoint Depression Visibility Wind Speed Wind Dir Waves Ship Positions

California Highway

Last reported at 2017-Oct-10 23:58 UTC. Time now 2017-Oct-18 03:46 UTC.
Position N 01°17' E 103°45'.

Length 200 m; draft 8.3 m.

Type: Cargo ship. MMSI: 352732000.

Date/timePositionNaut miles runAvg speedWind from/ knotsBaromVisibWave heightAir tempDewpointWater temp
2017-Oct-10 23:58N 01°17' E 103°45'0 0.0
2017-Oct-10 23:30N 01°17' E 103°45'1 1.2
2017-Oct-10 23:01N 01°16' E 103°45'2 4.6
2017-Oct-10 22:30N 01°15' E 103°46'4 8.4
2017-Oct-10 22:00N 01°12' E 103°50'4 8.3
2017-Oct-10 21:30N 01°13' E 103°54'2 3.6
2017-Oct-10 21:00N 01°14' E 103°55'3 5.5
2017-Oct-10 20:30N 01°15' E 103°58'4 7.1
2017-Oct-10 20:00N 01°16' E 104°01'3 6.8
2017-Oct-10 19:30N 01°16' E 104°05'6 8.3
2017-Oct-10 18:44N 01°17' E 104°11'  
Track history (hours):
 
Tides and Currents Weather Stations Pressure Air Temp Water Temp Dewpoint Dewpoint Depression Visibility Wind Speed Wind Dir Waves Ship Positions

California Highway

Last reported at 2017-Oct-10 23:58 UTC. Time now 2017-Oct-18 03:46 UTC.
Position N 01°17' E 103°45'.

Length 200 m; draft 8.3 m.

Type: Cargo ship. MMSI: 352732000.

Date/timePositionNaut miles runAvg speedWind from/ knotsBaromVisibWave heightAir tempDewpointWater temp
2017-Oct-10 23:58N 01°17' E 103°45'0 0.0
2017-Oct-10 23:30N 01°17' E 103°45'1 1.2
2017-Oct-10 23:01N 01°16' E 103°45'2 4.6
2017-Oct-10 22:30N 01°15' E 103°46'4 8.4
2017-Oct-10 22:00N 01°12' E 103°50'4 8.3
2017-Oct-10 21:30N 01°13' E 103°54'2 3.6
2017-Oct-10 21:00N 01°14' E 103°55'3 5.5
2017-Oct-10 20:30N 01°15' E 103°58'4 7.1
2017-Oct-10 20:00N 01°16' E 104°01'3 6.8
2017-Oct-10 19:30N 01°16' E 104°05'6 8.3
2017-Oct-10 18:44N 01°17' E 104°11'  

Dump ship's entire track history